sensor_id;sensor_type;location;lat;lon;timestamp;pressure;altitude;pressure_sealevel;temperature;humidity
13080;BME280;6606;49.154;9.280;2022-07-29T00:01:05;99398.16;;;22.77;100.00
13080;BME280;6606;49.154;9.280;2022-07-29T00:03:32;99389.34;;;22.75;100.00
13080;BME280;6606;49.154;9.280;2022-07-29T00:06:00;99391.69;;;22.70;100.00
13080;BME280;6606;49.154;9.280;2022-07-29T00:08:26;99395.56;;;22.68;100.00
13080;BME280;6606;49.154;9.280;2022-07-29T00:10:53;99395.16;;;22.54;100.00
13080;BME280;6606;49.154;9.280;2022-07-29T00:13:20;99395.56;;;22.33;100.00
13080;BME280;6606;49.154;9.280;2022-07-29T00:15:46;99388.78;;;22.11;100.00
13080;BME280;6606;49.154;9.280;2022-07-29T00:18:13;99385.91;;;22.05;100.00
13080;BME280;6606;49.154;9.280;2022-07-29T00:20:39;99388.44;;;21.88;100.00
13080;BME280;6606;49.154;9.280;2022-07-29T00:23:08;99386.25;;;21.84;100.00
13080;BME280;6606;49.154;9.280;2022-07-29T00:25:34;99395.44;;;21.73;100.00
13080;BME280;6606;49.154;9.280;2022-07-29T00:28:01;99381.09;;;21.55;100.00
13080;BME280;6606;49.154;9.280;2022-07-29T00:30:27;99387.88;;;21.59;100.00
13080;BME280;6606;49.154;9.280;2022-07-29T00:32:54;99374.84;;;21.36;100.00
13080;BME280;6606;49.154;9.280;2022-07-29T00:35:21;99376.13;;;21.32;100.00
13080;BME280;6606;49.154;9.280;2022-07-29T00:38:05;99370.50;;;21.25;100.00
13080;BME280;6606;49.154;9.280;2022-07-29T00:40:33;99369.94;;;21.22;100.00
13080;BME280;6606;49.154;9.280;2022-07-29T00:42:59;99379.09;;;21.11;100.00
13080;BME280;6606;49.154;9.280;2022-07-29T00:45:27;99364.72;;;21.20;100.00
13080;BME280;6606;49.154;9.280;2022-07-29T00:47:55;99367.44;;;21.20;100.00
13080;BME280;6606;49.154;9.280;2022-07-29T00:50:22;99357.25;;;21.32;100.00
13080;BME280;6606;49.154;9.280;2022-07-29T00:52:50;99358.66;;;21.36;100.00
13080;BME280;6606;49.154;9.280;2022-07-29T00:55:18;99354.41;;;21.16;100.00
13080;BME280;6606;49.154;9.280;2022-07-29T00:57:46;99354.75;;;21.03;100.00
13080;BME280;6606;49.154;9.280;2022-07-29T01:00:16;99362.47;;;20.98;100.00
13080;BME280;6606;49.154;9.280;2022-07-29T01:02:43;99360.81;;;20.87;100.00
13080;BME280;6606;49.154;9.280;2022-07-29T01:05:11;99363.38;;;20.89;100.00
13080;BME280;6606;49.154;9.280;2022-07-29T01:07:39;99362.81;;;20.85;100.00
13080;BME280;6606;49.154;9.280;2022-07-29T01:10:08;99356.84;;;20.91;100.00
13080;BME280;6606;49.154;9.280;2022-07-29T01:12:37;99355.75;;;20.84;100.00
13080;BME280;6606;49.154;9.280;2022-07-29T01:15:07;99356.41;;;20.68;100.00
13080;BME280;6606;49.154;9.280;2022-07-29T01:17:37;99351.34;;;20.55;100.00
13080;BME280;6606;49.154;9.280;2022-07-29T01:20:10;99351.63;;;20.52;100.00
13080;BME280;6606;49.154;9.280;2022-07-29T01:22:53;99348.81;;;20.44;100.00
13080;BME280;6606;49.154;9.280;2022-07-29T01:25:34;99351.09;;;20.49;100.00
13080;BME280;6606;49.154;9.280;2022-07-29T01:31:21;99346.84;;;20.46;100.00
13080;BME280;6606;49.154;9.280;2022-07-29T01:33:55;99344.19;;;20.36;100.00
13080;BME280;6606;49.154;9.280;2022-07-29T01:36:29;99342.94;;;20.31;100.00
13080;BME280;6606;49.154;9.280;2022-07-29T01:39:02;99344.91;;;20.29;100.00
13080;BME280;6606;49.154;9.280;2022-07-29T01:41:49;99346.63;;;20.30;100.00
13080;BME280;6606;49.154;9.280;2022-07-29T01:44:19;99349.25;;;20.39;100.00
13080;BME280;6606;49.154;9.280;2022-07-29T01:46:51;99345.13;;;20.45;100.00
13080;BME280;6606;49.154;9.280;2022-07-29T01:49:22;99352.22;;;20.46;100.00
13080;BME280;6606;49.154;9.280;2022-07-29T01:51:53;99342.94;;;20.31;100.00
13080;BME280;6606;49.154;9.280;2022-07-29T01:54:26;99352.16;;;20.18;100.00
13080;BME280;6606;49.154;9.280;2022-07-29T01:56:56;99354.44;;;20.13;100.00
13080;BME280;6606;49.154;9.280;2022-07-29T01:59:25;99357.53;;;20.18;100.00
13080;BME280;6606;49.154;9.280;2022-07-29T02:01:54;99351.50;;;20.16;100.00
13080;BME280;6606;49.154;9.280;2022-07-29T02:04:22;99352.06;;;20.10;100.00
13080;BME280;6606;49.154;9.280;2022-07-29T02:06:52;99354.34;;;20.05;100.00
13080;BME280;6606;49.154;9.280;2022-07-29T02:09:20;99348.94;;;20.05;100.00
13080;BME280;6606;49.154;9.280;2022-07-29T02:11:50;99347.09;;;20.06;100.00
13080;BME280;6606;49.154;9.280;2022-07-29T02:14:21;99345.09;;;20.17;100.00
13080;BME280;6606;49.154;9.280;2022-07-29T02:16:52;99344.50;;;20.24;100.00
13080;BME280;6606;49.154;9.280;2022-07-29T02:19:21;99349.75;;;20.25;100.00
13080;BME280;6606;49.154;9.280;2022-07-29T02:21:51;99343.13;;;20.19;100.00
13080;BME280;6606;49.154;9.280;2022-07-29T02:24:21;99330.94;;;20.15;100.00
13080;BME280;6606;49.154;9.280;2022-07-29T02:26:50;99336.19;;;20.17;100.00
13080;BME280;6606;49.154;9.280;2022-07-29T02:29:21;99321.88;;;20.16;100.00
13080;BME280;6606;49.154;9.280;2022-07-29T02:31:49;99331.34;;;20.20;100.00
13080;BME280;6606;49.154;9.280;2022-07-29T02:34:18;99330.22;;;20.13;100.00
13080;BME280;6606;49.154;9.280;2022-07-29T02:36:46;99332.13;;;20.03;100.00
13080;BME280;6606;49.154;9.280;2022-07-29T02:39:15;99325.16;;;20.10;100.00
13080;BME280;6606;49.154;9.280;2022-07-29T02:41:44;99327.84;;;20.10;100.00
13080;BME280;6606;49.154;9.280;2022-07-29T02:44:12;99332.66;;;20.07;100.00
13080;BME280;6606;49.154;9.280;2022-07-29T02:46:46;99328.97;;;20.08;100.00
13080;BME280;6606;49.154;9.280;2022-07-29T02:49:18;99333.66;;;20.06;100.00
13080;BME280;6606;49.154;9.280;2022-07-29T02:51:49;99344.41;;;20.06;100.00
13080;BME280;6606;49.154;9.280;2022-07-29T02:54:25;99335.09;;;20.00;100.00
13080;BME280;6606;49.154;9.280;2022-07-29T02:56:53;99334.41;;;19.88;100.00
13080;BME280;6606;49.154;9.280;2022-07-29T02:59:25;99337.41;;;19.75;100.00
13080;BME280;6606;49.154;9.280;2022-07-29T03:01:55;99337.38;;;19.66;100.00
13080;BME280;6606;49.154;9.280;2022-07-29T03:04:24;99334.44;;;19.59;100.00
13080;BME280;6606;49.154;9.280;2022-07-29T03:06:53;99338.81;;;19.60;100.00
13080;BME280;6606;49.154;9.280;2022-07-29T03:09:23;99339.38;;;19.54;100.00
13080;BME280;6606;49.154;9.280;2022-07-29T03:11:50;99343.34;;;19.50;100.00
13080;BME280;6606;49.154;9.280;2022-07-29T03:14:19;99342.91;;;19.45;100.00
13080;BME280;6606;49.154;9.280;2022-07-29T03:16:49;99344.34;;;19.29;100.00
13080;BME280;6606;49.154;9.280;2022-07-29T03:19:18;99351.28;;;19.22;100.00
13080;BME280;6606;49.154;9.280;2022-07-29T03:21:45;99339.66;;;19.12;100.00
13080;BME280;6606;49.154;9.280;2022-07-29T03:24:27;99338.41;;;19.16;100.00
13080;BME280;6606;49.154;9.280;2022-07-29T03:26:55;99342.22;;;19.14;100.00
13080;BME280;6606;49.154;9.280;2022-07-29T03:29:22;99343.88;;;19.05;100.00
13080;BME280;6606;49.154;9.280;2022-07-29T03:31:49;99338.50;;;19.05;100.00
13080;BME280;6606;49.154;9.280;2022-07-29T03:34:17;99330.88;;;18.91;100.00
13080;BME280;6606;49.154;9.280;2022-07-29T03:36:44;99322.66;;;18.82;100.00
13080;BME280;6606;49.154;9.280;2022-07-29T03:39:12;99338.06;;;18.80;100.00
13080;BME280;6606;49.154;9.280;2022-07-29T03:41:42;99335.09;;;18.83;100.00
13080;BME280;6606;49.154;9.280;2022-07-29T03:44:09;99334.84;;;18.96;100.00
13080;BME280;6606;49.154;9.280;2022-07-29T03:46:37;99340.22;;;19.06;100.00
13080;BME280;6606;49.154;9.280;2022-07-29T03:49:06;99341.91;;;19.07;100.00
13080;BME280;6606;49.154;9.280;2022-07-29T03:51:35;99338.53;;;19.15;100.00
13080;BME280;6606;49.154;9.280;2022-07-29T03:54:03;99343.91;;;19.15;100.00
13080;BME280;6606;49.154;9.280;2022-07-29T03:56:32;99333.16;;;19.15;100.00
13080;BME280;6606;49.154;9.280;2022-07-29T03:59:01;99335.41;;;19.09;100.00
13080;BME280;6606;49.154;9.280;2022-07-29T04:01:29;99335.09;;;18.83;100.00
13080;BME280;6606;49.154;9.280;2022-07-29T04:03:56;99326.63;;;18.88;100.00
13080;BME280;6606;49.154;9.280;2022-07-29T04:06:23;99332.31;;;18.95;100.00
13080;BME280;6606;49.154;9.280;2022-07-29T04:08:52;99335.41;;;19.00;100.00
13080;BME280;6606;49.154;9.280;2022-07-29T04:11:19;99342.19;;;19.04;100.00
13080;BME280;6606;49.154;9.280;2022-07-29T04:13:46;99336.00;;;19.03;100.00
13080;BME280;6606;49.154;9.280;2022-07-29T04:16:12;99328.06;;;19.11;100.00
13080;BME280;6606;49.154;9.280;2022-07-29T04:18:39;99333.72;;;19.18;100.00
13080;BME280;6606;49.154;9.280;2022-07-29T04:21:06;99341.09;;;19.16;100.00
13080;BME280;6606;49.154;9.280;2022-07-29T04:23:32;99346.31;;;19.18;100.00
13080;BME280;6606;49.154;9.280;2022-07-29T04:26:00;99340.22;;;19.16;100.00
13080;BME280;6606;49.154;9.280;2022-07-29T04:28:27;99351.84;;;19.16;100.00
13080;BME280;6606;49.154;9.280;2022-07-29T04:30:54;99348.69;;;19.01;100.00
13080;BME280;6606;49.154;9.280;2022-07-29T04:33:20;99355.19;;;18.99;100.00
13080;BME280;6606;49.154;9.280;2022-07-29T04:35:47;99357.22;;;19.16;100.00
13080;BME280;6606;49.154;9.280;2022-07-29T04:38:14;99357.06;;;19.18;100.00
13080;BME280;6606;49.154;9.280;2022-07-29T04:40:40;99354.09;;;19.21;100.00
13080;BME280;6606;49.154;9.280;2022-07-29T04:43:08;99354.97;;;19.21;100.00
13080;BME280;6606;49.154;9.280;2022-07-29T04:45:35;99347.31;;;19.46;100.00
13080;BME280;6606;49.154;9.280;2022-07-29T04:48:01;99352.41;;;19.49;100.00
13080;BME280;6606;49.154;9.280;2022-07-29T04:50:28;99358.06;;;19.55;100.00
13080;BME280;6606;49.154;9.280;2022-07-29T04:52:55;99350.13;;;19.44;100.00
13080;BME280;6606;49.154;9.280;2022-07-29T04:55:21;99339.97;;;19.48;100.00
13080;BME280;6606;49.154;9.280;2022-07-29T04:57:48;99346.75;;;19.62;100.00
13080;BME280;6606;49.154;9.280;2022-07-29T05:00:16;99341.44;;;20.09;100.00
13080;BME280;6606;49.154;9.280;2022-07-29T05:02:43;99341.25;;;20.30;100.00
13080;BME280;6606;49.154;9.280;2022-07-29T05:05:10;99349.63;;;20.17;100.00
13080;BME280;6606;49.154;9.280;2022-07-29T05:07:36;99349.78;;;20.15;100.00
13080;BME280;6606;49.154;9.280;2022-07-29T05:10:04;99344.03;;;20.38;100.00
13080;BME280;6606;49.154;9.280;2022-07-29T05:12:31;99356.09;;;20.71;100.00
13080;BME280;6606;49.154;9.280;2022-07-29T05:14:57;99357.41;;;20.85;100.00
13080;BME280;6606;49.154;9.280;2022-07-29T05:17:25;99356.41;;;21.14;100.00
13080;BME280;6606;49.154;9.280;2022-07-29T05:19:52;99347.94;;;21.26;100.00
13080;BME280;6606;49.154;9.280;2022-07-29T05:22:19;99351.72;;;21.34;100.00
13080;BME280;6606;49.154;9.280;2022-07-29T05:24:46;99349.59;;;21.55;100.00
13080;BME280;6606;49.154;9.280;2022-07-29T05:27:13;99347.66;;;21.47;100.00
13080;BME280;6606;49.154;9.280;2022-07-29T05:29:40;99359.06;;;21.41;100.00
13080;BME280;6606;49.154;9.280;2022-07-29T05:32:06;99353.28;;;21.54;100.00
13080;BME280;6606;49.154;9.280;2022-07-29T05:34:34;99362.94;;;21.57;100.00
13080;BME280;6606;49.154;9.280;2022-07-29T05:37:01;99359.78;;;21.16;100.00
13080;BME280;6606;49.154;9.280;2022-07-29T05:39:28;99364.34;;;21.15;100.00
13080;BME280;6606;49.154;9.280;2022-07-29T05:41:54;99363.97;;;21.28;100.00
13080;BME280;6606;49.154;9.280;2022-07-29T05:44:21;99366.84;;;21.44;100.00
13080;BME280;6606;49.154;9.280;2022-07-29T05:46:47;99361.56;;;21.79;100.00
13080;BME280;6606;49.154;9.280;2022-07-29T05:49:14;99363.97;;;21.82;100.00
13080;BME280;6606;49.154;9.280;2022-07-29T05:51:42;99363.88;;;21.91;100.00
13080;BME280;6606;49.154;9.280;2022-07-29T05:54:09;99363.81;;;22.35;100.00
13080;BME280;6606;49.154;9.280;2022-07-29T05:56:36;99379.59;;;22.82;100.00
13080;BME280;6606;49.154;9.280;2022-07-29T05:59:02;99370.31;;;22.85;100.00
13080;BME280;6606;49.154;9.280;2022-07-29T06:01:29;99377.31;;;23.04;100.00
13080;BME280;6606;49.154;9.280;2022-07-29T06:03:56;99374.66;;;23.20;100.00
13080;BME280;6606;49.154;9.280;2022-07-29T06:06:23;99370.28;;;23.19;100.00
13080;BME280;6606;49.154;9.280;2022-07-29T06:08:51;99375.72;;;23.44;100.00
13080;BME280;6606;49.154;9.280;2022-07-29T06:11:18;99378.41;;;23.44;100.00
13080;BME280;6606;49.154;9.280;2022-07-29T06:13:44;99379.13;;;23.70;100.00
13080;BME280;6606;49.154;9.280;2022-07-29T06:16:11;99380.13;;;23.53;100.00
13080;BME280;6606;49.154;9.280;2022-07-29T06:18:38;99386.88;;;23.41;100.00
13080;BME280;6606;49.154;9.280;2022-07-29T06:21:07;99381.13;;;23.60;100.00
13080;BME280;6606;49.154;9.280;2022-07-29T06:23:35;99387.09;;;23.88;100.00
13080;BME280;6606;49.154;9.280;2022-07-29T06:26:03;99385.22;;;24.05;100.00
13080;BME280;6606;49.154;9.280;2022-07-29T06:28:30;99384.56;;;24.11;100.00
13080;BME280;6606;49.154;9.280;2022-07-29T06:30:57;99386.91;;;24.23;100.00
13080;BME280;6606;49.154;9.280;2022-07-29T06:33:24;99387.22;;;24.36;100.00
13080;BME280;6606;49.154;9.280;2022-07-29T06:35:50;99391.09;;;24.42;100.00
13080;BME280;6606;49.154;9.280;2022-07-29T06:38:17;99392.25;;;24.55;100.00
13080;BME280;6606;49.154;9.280;2022-07-29T06:40:44;99399.00;;;24.68;100.00
13080;BME280;6606;49.154;9.280;2022-07-29T06:43:28;99395.44;;;25.07;100.00
13080;BME280;6606;49.154;9.280;2022-07-29T06:45:58;99399.00;;;25.07;100.00
13080;BME280;6606;49.154;9.280;2022-07-29T06:48:29;99402.19;;;25.11;100.00
13080;BME280;6606;49.154;9.280;2022-07-29T06:50:55;99401.81;;;25.30;100.00
13080;BME280;6606;49.154;9.280;2022-07-29T06:53:22;99406.09;;;25.48;100.00
13080;BME280;6606;49.154;9.280;2022-07-29T06:55:49;99405.44;;;25.69;100.00
13080;BME280;6606;49.154;9.280;2022-07-29T06:58:16;99410.72;;;26.08;100.00
13080;BME280;6606;49.154;9.280;2022-07-29T07:00:55;99410.94;;;26.21;100.00
13080;BME280;6606;49.154;9.280;2022-07-29T07:03:23;99408.91;;;25.85;100.00
13080;BME280;6606;49.154;9.280;2022-07-29T07:05:51;99406.19;;;25.85;100.00
13080;BME280;6606;49.154;9.280;2022-07-29T07:08:18;99409.47;;;26.48;100.00
13080;BME280;6606;49.154;9.280;2022-07-29T07:10:45;99411.19;;;26.64;100.00
13080;BME280;6606;49.154;9.280;2022-07-29T07:13:12;99409.31;;;26.50;100.00
13080;BME280;6606;49.154;9.280;2022-07-29T07:15:39;99405.84;;;26.86;100.00
13080;BME280;6606;49.154;9.280;2022-07-29T07:18:07;99403.28;;;27.14;100.00
13080;BME280;6606;49.154;9.280;2022-07-29T07:20:34;99405.69;;;28.53;100.00
13080;BME280;6606;49.154;9.280;2022-07-29T07:23:03;99414.03;;;28.79;98.42
13080;BME280;6606;49.154;9.280;2022-07-29T07:25:30;99405.59;;;29.09;97.85
13080;BME280;6606;49.154;9.280;2022-07-29T07:27:58;99407.47;;;29.70;94.36
13080;BME280;6606;49.154;9.280;2022-07-29T07:30:24;99410.66;;;29.93;89.02
13080;BME280;6606;49.154;9.280;2022-07-29T07:32:52;99408.84;;;32.14;76.82
13080;BME280;6606;49.154;9.280;2022-07-29T07:35:20;99413.13;;;33.45;65.18
13080;BME280;6606;49.154;9.280;2022-07-29T07:37:47;99402.41;;;30.66;77.70
13080;BME280;6606;49.154;9.280;2022-07-29T07:40:14;99401.78;;;29.03;89.80
13080;BME280;6606;49.154;9.280;2022-07-29T07:42:41;99403.41;;;28.98;92.25
13080;BME280;6606;49.154;9.280;2022-07-29T07:45:09;99399.69;;;29.73;88.80
13080;BME280;6606;49.154;9.280;2022-07-29T07:47:36;99400.66;;;31.75;79.19
13080;BME280;6606;49.154;9.280;2022-07-29T07:50:04;99400.09;;;34.48;59.43
13080;BME280;6606;49.154;9.280;2022-07-29T07:52:32;99401.81;;;35.13;54.45
13080;BME280;6606;49.154;9.280;2022-07-29T07:54:59;99394.25;;;36.28;48.98
13080;BME280;6606;49.154;9.280;2022-07-29T07:57:26;99392.66;;;34.49;52.87
13080;BME280;6606;49.154;9.280;2022-07-29T07:59:53;99395.09;;;33.19;61.77
13080;BME280;6606;49.154;9.280;2022-07-29T08:02:19;99395.91;;;35.21;51.99
13080;BME280;6606;49.154;9.280;2022-07-29T08:04:46;99396.50;;;36.31;48.87
13080;BME280;6606;49.154;9.280;2022-07-29T08:07:13;99398.25;;;36.38;43.57
13080;BME280;6606;49.154;9.280;2022-07-29T08:09:41;99402.44;;;36.40;43.52
13080;BME280;6606;49.154;9.280;2022-07-29T08:12:08;99402.66;;;36.39;42.16
13080;BME280;6606;49.154;9.280;2022-07-29T08:14:34;99403.09;;;36.30;43.89
13080;BME280;6606;49.154;9.280;2022-07-29T08:17:01;99403.16;;;35.56;45.28
13080;BME280;6606;49.154;9.280;2022-07-29T08:19:28;99399.47;;;34.23;51.08
13080;BME280;6606;49.154;9.280;2022-07-29T08:21:54;99397.59;;;32.22;60.24
13080;BME280;6606;49.154;9.280;2022-07-29T08:24:21;99395.22;;;31.44;65.90
13080;BME280;6606;49.154;9.280;2022-07-29T08:27:08;99403.00;;;32.54;61.37
13080;BME280;6606;49.154;9.280;2022-07-29T08:29:35;99400.91;;;34.61;52.44
13080;BME280;6606;49.154;9.280;2022-07-29T08:32:02;99395.44;;;35.01;47.87
13080;BME280;6606;49.154;9.280;2022-07-29T08:34:29;99404.00;;;33.15;57.72
13080;BME280;6606;49.154;9.280;2022-07-29T08:36:56;99400.28;;;34.82;49.56
13080;BME280;6606;49.154;9.280;2022-07-29T08:39:23;99411.44;;;35.85;45.12
13080;BME280;6606;49.154;9.280;2022-07-29T08:41:50;99405.88;;;36.30;43.43
13080;BME280;6606;49.154;9.280;2022-07-29T08:44:19;99403.78;;;36.38;40.51
13080;BME280;6606;49.154;9.280;2022-07-29T08:46:47;99404.59;;;35.30;43.36
13080;BME280;6606;49.154;9.280;2022-07-29T08:49:15;99401.56;;;33.25;52.02
13080;BME280;6606;49.154;9.280;2022-07-29T08:51:41;99400.34;;;30.15;68.04
13080;BME280;6606;49.154;9.280;2022-07-29T08:54:09;99397.81;;;29.74;73.04
13080;BME280;6606;49.154;9.280;2022-07-29T08:56:38;99395.25;;;29.59;74.10
13080;BME280;6606;49.154;9.280;2022-07-29T08:59:07;99401.50;;;29.53;74.44
13080;BME280;6606;49.154;9.280;2022-07-29T09:01:37;99391.72;;;29.78;77.51
13080;BME280;6606;49.154;9.280;2022-07-29T09:04:10;99398.69;;;30.01;76.03
13080;BME280;6606;49.154;9.280;2022-07-29T09:06:40;99402.47;;;30.27;73.97
13080;BME280;6606;49.154;9.280;2022-07-29T09:09:08;99407.91;;;30.00;75.67
13080;BME280;6606;49.154;9.280;2022-07-29T09:11:35;99404.88;;;29.55;78.52
13080;BME280;6606;49.154;9.280;2022-07-29T09:14:02;99410.03;;;30.31;73.15
13080;BME280;6606;49.154;9.280;2022-07-29T09:19:24;99404.31;;;30.53;71.14
13080;BME280;6606;49.154;9.280;2022-07-29T09:21:52;99399.06;;;30.64;69.23
13080;BME280;6606;49.154;9.280;2022-07-29T09:27:19;99398.06;;;30.26;75.26
13080;BME280;6606;49.154;9.280;2022-07-29T09:29:47;99395.09;;;30.00;76.29
13080;BME280;6606;49.154;9.280;2022-07-29T09:32:14;99393.63;;;30.38;76.52
13080;BME280;6606;49.154;9.280;2022-07-29T09:34:42;99386.91;;;30.07;73.91
13080;BME280;6606;49.154;9.280;2022-07-29T09:37:08;99389.81;;;30.06;72.84
13080;BME280;6606;49.154;9.280;2022-07-29T09:39:37;99380.53;;;30.53;74.52
13080;BME280;6606;49.154;9.280;2022-07-29T09:42:11;99378.91;;;30.12;73.21
13080;BME280;6606;49.154;9.280;2022-07-29T09:44:43;99385.41;;;30.51;75.44
13080;BME280;6606;49.154;9.280;2022-07-29T09:47:10;99388.09;;;29.58;76.51
13080;BME280;6606;49.154;9.280;2022-07-29T09:49:51;99386.25;;;29.78;74.88
13080;BME280;6606;49.154;9.280;2022-07-29T09:52:19;99379.31;;;30.49;74.27
13080;BME280;6606;49.154;9.280;2022-07-29T09:54:46;99384.50;;;30.71;72.50
13080;BME280;6606;49.154;9.280;2022-07-29T09:57:24;99383.09;;;30.15;76.19
13080;BME280;6606;49.154;9.280;2022-07-29T09:59:58;99383.84;;;30.82;71.90
13080;BME280;6606;49.154;9.280;2022-07-29T10:02:30;99381.75;;;30.84;74.71
13080;BME280;6606;49.154;9.280;2022-07-29T10:04:59;99374.16;;;31.31;70.87
13080;BME280;6606;49.154;9.280;2022-07-29T10:07:26;99376.72;;;30.81;74.71
13080;BME280;6606;49.154;9.280;2022-07-29T10:10:08;99377.53;;;31.65;66.00
13080;BME280;6606;49.154;9.280;2022-07-29T10:12:48;99380.56;;;32.13;62.78
13080;BME280;6606;49.154;9.280;2022-07-29T10:15:16;99364.19;;;31.75;64.47
13080;BME280;6606;49.154;9.280;2022-07-29T10:17:43;99369.00;;;31.54;65.20
13080;BME280;6606;49.154;9.280;2022-07-29T10:20:12;99352.53;;;31.23;64.74
13080;BME280;6606;49.154;9.280;2022-07-29T10:22:40;99358.00;;;31.23;66.53
13080;BME280;6606;49.154;9.280;2022-07-29T10:25:07;99362.53;;;31.74;67.84
13080;BME280;6606;49.154;9.280;2022-07-29T10:27:35;99368.72;;;31.63;68.38
13080;BME280;6606;49.154;9.280;2022-07-29T10:30:03;99364.38;;;31.80;63.70
13080;BME280;6606;49.154;9.280;2022-07-29T10:32:48;99367.56;;;32.27;65.17
13080;BME280;6606;49.154;9.280;2022-07-29T10:35:43;99364.03;;;31.70;62.40
13080;BME280;6606;49.154;9.280;2022-07-29T10:38:26;99364.47;;;31.98;59.05
13080;BME280;6606;49.154;9.280;2022-07-29T10:41:00;99364.56;;;31.15;61.93
13080;BME280;6606;49.154;9.280;2022-07-29T10:43:47;99363.06;;;31.58;62.39
13080;BME280;6606;49.154;9.280;2022-07-29T10:46:15;99357.97;;;31.61;59.42
13080;BME280;6606;49.154;9.280;2022-07-29T10:49:10;99353.81;;;32.09;58.10
13080;BME280;6606;49.154;9.280;2022-07-29T10:51:56;99351.53;;;32.68;51.61
13080;BME280;6606;49.154;9.280;2022-07-29T10:54:40;99351.38;;;32.81;53.17
13080;BME280;6606;49.154;9.280;2022-07-29T10:57:13;99346.56;;;33.13;52.16
13080;BME280;6606;49.154;9.280;2022-07-29T10:59:40;99351.59;;;33.16;50.82
13080;BME280;6606;49.154;9.280;2022-07-29T11:05:09;99338.63;;;33.05;46.38
13080;BME280;6606;49.154;9.280;2022-07-29T11:07:39;99343.13;;;32.44;49.21
13080;BME280;6606;49.154;9.280;2022-07-29T11:10:20;99346.84;;;32.13;53.42
13080;BME280;6606;49.154;9.280;2022-07-29T11:12:47;99348.56;;;32.51;52.80
13080;BME280;6606;49.154;9.280;2022-07-29T11:15:15;99340.34;;;32.26;51.72
13080;BME280;6606;49.154;9.280;2022-07-29T11:18:06;99337.56;;;32.07;52.12
13080;BME280;6606;49.154;9.280;2022-07-29T11:20:35;99331.09;;;31.76;53.14
13080;BME280;6606;49.154;9.280;2022-07-29T11:26:19;99326.19;;;31.53;54.46
13080;BME280;6606;49.154;9.280;2022-07-29T11:29:00;99328.81;;;31.73;51.91
13080;BME280;6606;49.154;9.280;2022-07-29T11:31:34;99324.63;;;31.96;50.77
13080;BME280;6606;49.154;9.280;2022-07-29T11:34:19;99325.38;;;31.78;50.98
13080;BME280;6606;49.154;9.280;2022-07-29T11:37:17;99321.28;;;31.37;55.19
13080;BME280;6606;49.154;9.280;2022-07-29T11:39:45;99312.44;;;31.85;52.05
13080;BME280;6606;49.154;9.280;2022-07-29T11:42:39;99320.28;;;32.07;52.96
13080;BME280;6606;49.154;9.280;2022-07-29T11:45:08;99333.09;;;31.88;53.83
13080;BME280;6606;49.154;9.280;2022-07-29T11:47:37;99323.88;;;31.82;54.88
13080;BME280;6606;49.154;9.280;2022-07-29T11:50:07;99324.22;;;32.36;51.16
13080;BME280;6606;49.154;9.280;2022-07-29T11:52:36;99318.75;;;32.54;52.26
13080;BME280;6606;49.154;9.280;2022-07-29T11:55:09;99316.53;;;32.45;50.20
13080;BME280;6606;49.154;9.280;2022-07-29T11:57:38;99325.06;;;32.73;50.92
13080;BME280;6606;49.154;9.280;2022-07-29T12:00:21;99313.72;;;32.70;48.22
13080;BME280;6606;49.154;9.280;2022-07-29T12:02:48;99322.88;;;32.63;46.99
13080;BME280;6606;49.154;9.280;2022-07-29T12:05:16;99318.03;;;32.96;46.78
13080;BME280;6606;49.154;9.280;2022-07-29T12:07:43;99310.00;;;32.64;47.22
13080;BME280;6606;49.154;9.280;2022-07-29T12:10:09;99305.44;;;32.14;49.72
13080;BME280;6606;49.154;9.280;2022-07-29T12:12:36;99297.44;;;31.94;49.54
13080;BME280;6606;49.154;9.280;2022-07-29T12:15:16;99280.88;;;32.63;48.72
13080;BME280;6606;49.154;9.280;2022-07-29T12:17:46;99295.44;;;33.12;48.53
13080;BME280;6606;49.154;9.280;2022-07-29T12:20:22;99288.81;;;32.71;48.14
13080;BME280;6606;49.154;9.280;2022-07-29T12:22:49;99283.06;;;32.73;44.81
13080;BME280;6606;49.154;9.280;2022-07-29T12:25:15;99282.25;;;32.54;46.18
13080;BME280;6606;49.154;9.280;2022-07-29T12:27:44;99279.84;;;32.76;43.93
13080;BME280;6606;49.154;9.280;2022-07-29T12:30:12;99290.84;;;32.76;43.49
13080;BME280;6606;49.154;9.280;2022-07-29T12:32:42;99285.09;;;32.96;44.60
13080;BME280;6606;49.154;9.280;2022-07-29T12:35:11;99281.56;;;33.07;43.11
13080;BME280;6606;49.154;9.280;2022-07-29T12:37:41;99289.31;;;32.80;42.84
13080;BME280;6606;49.154;9.280;2022-07-29T12:40:09;99280.19;;;32.98;43.26
13080;BME280;6606;49.154;9.280;2022-07-29T12:42:38;99282.03;;;33.04;42.60
13080;BME280;6606;49.154;9.280;2022-07-29T12:45:06;99281.16;;;33.34;42.03
13080;BME280;6606;49.154;9.280;2022-07-29T12:47:52;99280.69;;;33.37;41.92
13080;BME280;6606;49.154;9.280;2022-07-29T12:50:19;99284.72;;;32.92;41.47
13080;BME280;6606;49.154;9.280;2022-07-29T12:52:47;99270.78;;;32.75;41.61
13080;BME280;6606;49.154;9.280;2022-07-29T12:55:14;99265.94;;;32.89;42.30
13080;BME280;6606;49.154;9.280;2022-07-29T12:57:45;99277.44;;;32.98;41.57
13080;BME280;6606;49.154;9.280;2022-07-29T13:00:13;99280.44;;;33.26;42.03
13080;BME280;6606;49.154;9.280;2022-07-29T13:02:42;99269.97;;;33.47;41.53
13080;BME280;6606;49.154;9.280;2022-07-29T13:05:10;99272.03;;;33.63;39.12
13080;BME280;6606;49.154;9.280;2022-07-29T13:07:38;99286.22;;;33.06;39.80
13080;BME280;6606;49.154;9.280;2022-07-29T13:10:13;99285.09;;;32.96;40.47
13080;BME280;6606;49.154;9.280;2022-07-29T13:13:01;99282.91;;;32.68;39.86
13080;BME280;6606;49.154;9.280;2022-07-29T13:15:27;99282.66;;;32.88;41.45
13080;BME280;6606;49.154;9.280;2022-07-29T13:17:54;99288.91;;;32.95;38.13
13080;BME280;6606;49.154;9.280;2022-07-29T13:20:25;99289.75;;;33.25;36.75
13080;BME280;6606;49.154;9.280;2022-07-29T13:22:55;99292.97;;;33.34;37.69
13080;BME280;6606;49.154;9.280;2022-07-29T13:25:26;99278.66;;;33.74;36.57
13080;BME280;6606;49.154;9.280;2022-07-29T13:27:53;99280.06;;;33.77;39.08
13080;BME280;6606;49.154;9.280;2022-07-29T13:30:21;99288.22;;;33.71;38.48
13080;BME280;6606;49.154;9.280;2022-07-29T13:32:49;99292.75;;;34.01;37.11